Time;durP1;ratioP1;P1;durP2;ratioP2;P2;SDS_P1;SDS_P2;PMS_P1;PMS_P2;Temp;Humidity;BMP_temperature;BMP_pressure;BME280_temperature;BME280_humidity;BME280_pressure;Samples;Min_cycle;Max_cycle;Signal;HPM_P1;HPM_P2
2022/05/16 00:01:49;;;;;;;8.60;4.67;;;19.20;68.20;;;;;;6186715;23;20902;-89
2022/05/16 00:04:17;;;;;;;7.73;5.47;;;19.20;67.90;;;;;;6186364;23;20765;-89
2022/05/16 00:06:44;;;;;;;9.43;5.97;;;19.10;67.90;;;;;;6186543;23;20481;-89
2022/05/16 00:09:10;;;;;;;8.93;5.20;;;19.10;67.10;;;;;;6185912;23;20410;-89
2022/05/16 00:11:37;;;;;;;5.50;5.00;;;19.00;68.10;;;;;;6209230;23;20461;-89
2022/05/16 00:14:05;;;;;;;6.47;4.80;;;19.00;68.00;;;;;;6214104;23;20418;-89
2022/05/16 00:16:32;;;;;;;9.60;5.57;;;19.10;67.60;;;;;;6201649;23;20411;-88
2022/05/16 00:19:00;;;;;;;6.83;4.50;;;19.00;68.10;;;;;;6211117;23;20411;-89
2022/05/16 00:21:27;;;;;;;5.70;4.30;;;19.00;68.50;;;;;;6201089;23;20415;-89
2022/05/16 00:23:54;;;;;;;5.27;3.80;;;19.00;68.00;;;;;;6195444;23;20432;-88
2022/05/16 00:26:21;;;;;;;7.17;4.60;;;18.90;68.40;;;;;;6203705;23;20402;-89
2022/05/16 00:28:47;;;;;;;6.30;5.70;;;18.70;69.70;;;;;;6201776;23;20519;-88
2022/05/16 00:31:14;;;;;;;6.30;4.60;;;18.80;70.50;;;;;;6189502;23;20442;-89
2022/05/16 00:33:42;;;;;;;5.10;4.60;;;18.80;71.00;;;;;;6187004;23;20750;-89
2022/05/16 00:36:10;;;;;;;4.93;3.90;;;18.70;71.20;;;;;;6186796;23;20487;-89
2022/05/16 00:38:37;;;;;;;5.60;4.00;;;18.60;71.40;;;;;;6187484;23;20406;-89
2022/05/16 00:41:05;;;;;;;7.23;5.00;;;18.70;71.50;;;;;;6188656;23;20410;-88
2022/05/16 00:43:51;;;;;;;6.27;5.50;;;18.80;71.30;;;;;;6212298;23;20425;-88
2022/05/16 00:46:18;;;;;;;7.53;4.80;;;18.80;71.40;;;;;;6214135;23;20388;-89
2022/05/16 00:48:45;;;;;;;9.43;6.03;;;18.80;71.40;;;;;;6193553;23;20405;-88
2022/05/16 00:51:18;;;;;;;9.53;4.83;;;18.80;71.60;;;;;;6186760;23;20440;-89
2022/05/16 00:53:45;;;;;;;7.03;4.80;;;18.80;71.40;;;;;;6186481;23;20431;-89
2022/05/16 00:56:12;;;;;;;5.17;3.60;;;18.80;72.10;;;;;;6187045;23;20414;-89
2022/05/16 00:58:41;;;;;;;11.90;5.80;;;18.80;72.20;;;;;;6191002;23;20410;-89
2022/05/16 01:04:47;;;;;;;9.30;4.90;;;18.70;72.10;;;;;;6205153;23;20402;-89
2022/05/16 01:06:43;;;;;;;6.43;5.20;;;18.70;72.40;;;;;;6188134;23;20402;-89
2022/05/16 01:09:10;;;;;;;7.00;5.23;;;18.60;72.30;;;;;;6191365;23;20411;-88
2022/05/16 01:11:39;;;;;;;6.77;4.53;;;18.60;72.50;;;;;;6212927;23;20370;-88
2022/05/16 01:14:06;;;;;;;6.10;4.80;;;18.50;72.30;;;;;;6203486;23;20427;-88
2022/05/16 01:16:33;;;;;;;6.47;4.80;;;18.50;72.10;;;;;;6189665;23;20413;-89
2022/05/16 01:18:59;;;;;;;5.97;4.63;;;18.40;72.80;;;;;;6189252;23;20413;-89
2022/05/16 01:21:32;;;;;;;4.80;3.93;;;18.40;73.40;;;;;;6209924;23;20426;-89
2022/05/16 01:24:04;;;;;;;6.37;4.57;;;18.30;73.80;;;;;;6213764;23;20421;-89
2022/05/16 01:26:33;;;;;;;7.13;4.90;;;18.30;74.20;;;;;;6208606;23;20387;-89
2022/05/16 01:29:01;;;;;;;17.30;5.40;;;18.30;74.70;;;;;;6190211;23;20490;-89
2022/05/16 01:31:28;;;;;;;5.70;5.03;;;18.20;75.70;;;;;;6191633;23;20512;-89
2022/05/16 01:33:55;;;;;;;6.87;5.90;;;18.20;75.30;;;;;;6190382;23;20439;-88
2022/05/16 01:36:22;;;;;;;12.30;5.70;;;18.10;75.60;;;;;;6188274;23;20407;-89
2022/05/16 01:38:49;;;;;;;9.63;5.80;;;18.10;75.90;;;;;;6196498;23;20439;-88
2022/05/16 01:41:20;;;;;;;8.97;5.90;;;18.00;76.20;;;;;;6189492;23;20490;-89
2022/05/16 01:43:49;;;;;;;7.67;6.67;;;17.90;77.10;;;;;;6197829;23;20434;-89
2022/05/16 01:46:18;;;;;;;11.37;7.23;;;18.00;77.60;;;;;;6202331;23;20410;-89
2022/05/16 01:48:45;;;;;;;9.77;7.83;;;18.00;77.90;;;;;;6197913;23;20401;-89
2022/05/16 01:51:13;;;;;;;9.73;6.80;;;18.00;77.80;;;;;;6210938;23;20452;-89
2022/05/16 01:54:03;;;;;;;17.60;7.90;;;17.90;78.30;;;;;;6212194;23;20441;-89
2022/05/16 01:56:32;;;;;;;11.90;6.83;;;17.90;78.10;;;;;;6211939;23;20423;-88
2022/05/16 01:58:59;;;;;;;11.60;6.10;;;17.80;78.80;;;;;;6205467;23;20406;-88
2022/05/16 02:01:25;;;;;;;6.50;5.90;;;17.80;79.20;;;;;;6191508;23;20390;-89
2022/05/16 02:03:52;;;;;;;7.93;5.93;;;17.70;79.60;;;;;;6190959;23;20433;-89
2022/05/16 02:06:19;;;;;;;7.93;6.40;;;17.70;79.70;;;;;;6189624;23;20406;-89
2022/05/16 02:08:48;;;;;;;8.53;5.60;;;17.80;79.40;;;;;;6189167;23;20419;-89
2022/05/16 02:11:16;;;;;;;10.70;5.30;;;17.70;78.10;;;;;;6189665;23;20441;-88
2022/05/16 02:13:45;;;;;;;8.40;5.10;;;17.70;77.40;;;;;;6188474;23;20428;-89
2022/05/16 02:16:12;;;;;;;6.03;4.53;;;17.80;77.10;;;;;;6188921;23;20417;-88
2022/05/16 02:18:39;;;;;;;10.00;5.07;;;17.80;76.60;;;;;;6189845;23;20428;-88
2022/05/16 02:26:35;;;;;;;5.30;4.20;;;17.80;75.50;;;;;;6186525;23;20417;-89
2022/05/16 02:29:04;;;;;;;4.73;3.63;;;17.80;75.40;;;;;;6186743;23;20420;-89
2022/05/16 02:31:30;;;;;;;6.60;4.70;;;17.60;76.10;;;;;;6185899;23;20445;-89
2022/05/16 02:33:57;;;;;;;10.40;4.50;;;17.50;76.40;;;;;;6192583;23;20475;-89
2022/05/16 02:36:24;;;;;;;8.20;5.00;;;17.60;76.20;;;;;;6189849;23;20915;-88
2022/05/16 02:38:51;;;;;;;6.60;4.10;;;17.60;75.90;;;;;;6185010;23;20420;-89
2022/05/16 02:41:18;;;;;;;5.10;3.83;;;17.60;75.30;;;;;;6186002;23;20402;-89
2022/05/16 02:43:44;;;;;;;5.60;5.10;;;17.60;75.50;;;;;;6185612;23;20971;-89
2022/05/16 02:46:13;;;;;;;4.80;3.67;;;17.70;75.00;;;;;;6185281;23;20729;-88
2022/05/16 02:48:39;;;;;;;5.90;3.63;;;17.80;74.40;;;;;;6185801;23;20420;-88
2022/05/16 02:51:06;;;;;;;5.40;3.87;;;17.80;75.20;;;;;;6185964;23;20449;-88
2022/05/16 02:53:41;;;;;;;5.13;4.00;;;17.80;75.00;;;;;;6204071;23;20419;-87
2022/05/16 02:56:08;;;;;;;6.53;3.80;;;17.70;74.80;;;;;;6212125;23;20394;-87
2022/05/16 02:58:34;;;;;;;4.57;4.10;;;17.70;75.30;;;;;;6202685;23;20403;-87
2022/05/16 03:01:01;;;;;;;5.60;3.90;;;17.70;75.80;;;;;;6199402;23;20413;-87
2022/05/16 03:03:29;;;;;;;7.93;4.57;;;17.70;76.60;;;;;;6208319;23;20412;-87
2022/05/16 03:05:56;;;;;;;8.77;4.63;;;17.70;77.40;;;;;;6195208;23;20417;-88
2022/05/16 03:08:24;;;;;;;6.33;4.30;;;17.70;77.60;;;;;;6188270;23;20403;-88
2022/05/16 03:10:51;;;;;;;10.37;5.00;;;17.80;77.30;;;;;;6187284;23;20532;-87
2022/05/16 03:13:18;;;;;;;8.00;4.90;;;17.80;77.10;;;;;;6206779;23;20400;-87
2022/05/16 03:15:45;;;;;;;9.20;5.67;;;17.80;77.20;;;;;;6207475;23;20394;-88
2022/05/16 03:18:11;;;;;;;13.00;4.67;;;17.70;77.50;;;;;;6188901;23;20406;-87
2022/05/16 03:20:39;;;;;;;9.40;5.47;;;17.80;77.20;;;;;;6186396;23;20409;-87
2022/05/16 03:23:06;;;;;;;5.70;4.70;;;17.80;77.40;;;;;;6184957;23;20413;-88
2022/05/16 03:25:33;;;;;;;9.80;5.10;;;17.70;77.60;;;;;;6184784;23;20959;-88
2022/05/16 03:28:00;;;;;;;6.50;5.43;;;17.60;78.30;;;;;;6186736;23;20403;-88
2022/05/16 03:30:28;;;;;;;8.03;4.90;;;17.70;78.90;;;;;;6197288;23;20449;-86
2022/05/16 03:32:55;;;;;;;10.97;6.07;;;17.60;79.40;;;;;;6191475;23;20893;-86
2022/05/16 03:35:22;;;;;;;10.13;5.80;;;17.70;79.90;;;;;;6185803;23;20437;-89
2022/05/16 03:37:50;;;;;;;6.80;5.50;;;17.70;79.60;;;;;;6185395;23;20401;-86
2022/05/16 03:43:01;;;;;;;10.10;6.20;;;17.70;79.30;;;;;;6185250;23;20872;-87
2022/05/16 03:45:28;;;;;;;8.93;6.83;;;17.80;79.10;;;;;;6184288;23;20439;-86
2022/05/16 03:47:57;;;;;;;9.33;6.03;;;17.90;78.60;;;;;;6184213;23;20475;-88
2022/05/16 03:50:26;;;;;;;11.30;6.47;;;18.00;78.80;;;;;;6182615;23;20440;-87
2022/05/16 03:52:54;;;;;;;11.60;6.43;;;18.00;79.00;;;;;;6182606;23;20417;-87
2022/05/16 03:55:22;;;;;;;11.50;5.73;;;18.00;79.70;;;;;;6183895;23;20774;-88
2022/05/16 03:57:49;;;;;;;10.33;6.30;;;17.90;79.50;;;;;;6184229;23;20406;-88
2022/05/16 04:00:20;;;;;;;10.03;6.47;;;17.90;79.80;;;;;;6183870;23;20414;-87
2022/05/16 04:02:47;;;;;;;7.93;6.20;;;17.80;80.40;;;;;;6184409;23;20401;-87
2022/05/16 04:05:18;;;;;;;9.80;6.30;;;17.90;80.30;;;;;;6183094;23;20436;-86
2022/05/16 04:07:45;;;;;;;11.93;7.20;;;17.90;80.10;;;;;;6183980;23;20870;-87
2022/05/16 04:10:15;;;;;;;8.27;6.07;;;17.90;79.90;;;;;;6183836;23;20413;-87
2022/05/16 04:12:42;;;;;;;12.13;6.73;;;17.90;80.50;;;;;;6184287;23;20391;-85
2022/05/16 04:15:11;;;;;;;10.43;6.30;;;17.90;81.00;;;;;;6183039;23;20998;-89
2022/05/16 04:17:38;;;;;;;9.83;6.77;;;17.80;80.70;;;;;;6185784;23;20413;-89
2022/05/16 04:20:06;;;;;;;11.10;7.27;;;18.00;80.60;;;;;;6186253;23;20428;-89
2022/05/16 04:22:33;;;;;;;9.83;7.07;;;18.00;80.20;;;;;;6185345;23;20402;-89
2022/05/16 04:25:00;;;;;;;11.10;6.23;;;18.00;80.50;;;;;;6185073;23;20978;-89
2022/05/16 04:27:28;;;;;;;11.80;7.23;;;18.00;80.60;;;;;;6187055;23;20409;-89
2022/05/16 04:29:54;;;;;;;9.60;6.00;;;18.10;80.60;;;;;;6208837;23;20394;-90
2022/05/16 04:32:21;;;;;;;8.70;6.90;;;18.10;80.60;;;;;;6211765;23;20457;-90
2022/05/16 04:34:48;;;;;;;16.50;6.67;;;18.20;79.90;;;;;;6195976;23;20457;-88
2022/05/16 04:37:14;;;;;;;13.30;6.63;;;18.10;81.20;;;;;;6206329;23;20718;-89
2022/05/16 04:39:41;;;;;;;14.40;6.27;;;18.10;81.70;;;;;;6194571;23;20736;-89
2022/05/16 04:44:54;;;;;;;13.03;7.47;;;18.20;82.80;;;;;;6185372;23;20424;-89
2022/05/16 04:47:21;;;;;;;8.83;6.23;;;18.30;84.20;;;;;;6206526;23;20460;-89
2022/05/16 04:49:47;;;;;;;11.63;6.30;;;18.30;85.00;;;;;;6202007;23;20412;-89
2022/05/16 04:52:14;;;;;;;11.40;7.00;;;18.30;85.20;;;;;;6185307;23;20441;-89
2022/05/16 04:54:41;;;;;;;12.40;6.60;;;18.30;86.30;;;;;;6197733;23;20411;-89
2022/05/16 04:57:08;;;;;;;10.93;6.73;;;18.30;86.50;;;;;;6200821;23;20416;-89
2022/05/16 04:59:35;;;;;;;8.30;5.60;;;18.20;86.40;;;;;;6185949;23;20910;-89
2022/05/16 05:02:04;;;;;;;8.07;6.00;;;18.20;87.10;;;;;;6186423;23;20405;-89
2022/05/16 05:04:31;;;;;;;8.47;5.50;;;18.20;87.00;;;;;;6187732;23;20458;-89
2022/05/16 05:06:58;;;;;;;8.67;6.63;;;18.20;87.20;;;;;;6185587;23;20407;-89
2022/05/16 05:09:24;;;;;;;17.93;8.10;;;18.20;87.00;;;;;;6186739;23;20427;-89
2022/05/16 05:14:38;;;;;;;9.93;7.77;;;18.30;87.80;;;;;;6186535;23;20489;-89
2022/05/16 05:17:08;;;;;;;12.80;7.00;;;18.40;88.00;;;;;;6187588;23;20417;-89
2022/05/16 05:19:36;;;;;;;11.70;6.50;;;18.50;88.90;;;;;;6189606;23;20410;-90
2022/05/16 05:22:04;;;;;;;14.50;7.30;;;18.50;88.80;;;;;;6188964;23;20406;-89
2022/05/16 05:24:31;;;;;;;9.10;6.80;;;18.60;87.90;;;;;;6187410;23;20422;-89
2022/05/16 05:26:58;;;;;;;8.10;6.40;;;18.60;86.70;;;;;;6187517;23;20413;-89
2022/05/16 05:29:24;;;;;;;12.57;6.37;;;18.70;86.90;;;;;;6189244;23;20399;-89
2022/05/16 05:31:51;;;;;;;11.43;7.17;;;18.70;87.40;;;;;;6206943;23;20439;-89
2022/05/16 05:34:20;;;;;;;11.80;7.00;;;18.90;86.80;;;;;;6212405;23;20429;-90
2022/05/16 05:36:47;;;;;;;11.13;7.20;;;19.00;87.20;;;;;;6200913;23;20393;-89
2022/05/16 05:39:16;;;;;;;12.30;7.77;;;19.10;86.60;;;;;;6211078;23;20413;-90
2022/05/16 05:41:43;;;;;;;12.00;7.10;;;19.10;86.80;;;;;;6192836;23;20429;-89
2022/05/16 05:44:10;;;;;;;12.00;7.07;;;19.10;85.70;;;;;;6188514;23;20438;-89
2022/05/16 05:46:39;;;;;;;13.20;7.80;;;19.10;85.40;;;;;;6187657;23;20421;-89
2022/05/16 05:49:06;;;;;;;13.00;7.73;;;19.10;86.30;;;;;;6188278;23;20406;-89
2022/05/16 05:51:35;;;;;;;11.50;8.50;;;19.10;85.20;;;;;;6202611;23;20428;-88
2022/05/16 05:54:01;;;;;;;11.17;7.40;;;18.90;85.20;;;;;;6210181;23;20406;-89
2022/05/16 05:56:28;;;;;;;10.67;6.80;;;18.90;83.40;;;;;;6210826;23;20438;-89
2022/05/16 05:58:55;;;;;;;18.40;7.93;;;18.90;85.10;;;;;;6203480;23;20460;-89
2022/05/16 06:01:22;;;;;;;12.63;7.37;;;19.00;84.70;;;;;;6192932;23;20738;-89
2022/05/16 06:03:49;;;;;;;12.37;9.00;;;19.00;84.70;;;;;;6190687;23;20435;-89
2022/05/16 06:06:15;;;;;;;14.73;7.23;;;19.00;83.10;;;;;;6189689;23;20432;-89
2022/05/16 06:08:44;;;;;;;11.43;8.57;;;19.10;83.60;;;;;;6189894;23;20410;-89
2022/05/16 06:11:11;;;;;;;9.53;6.87;;;19.20;82.60;;;;;;6186918;23;20441;-89
2022/05/16 06:13:38;;;;;;;11.33;7.20;;;19.30;82.00;;;;;;6189698;23;20418;-89
2022/05/16 06:16:05;;;;;;;13.30;7.70;;;19.20;81.30;;;;;;6187991;23;20394;-87
2022/05/16 06:18:32;;;;;;;12.43;6.90;;;19.20;81.40;;;;;;6189767;23;20445;-88
2022/05/16 06:20:59;;;;;;;16.23;7.23;;;19.30;80.90;;;;;;6187292;23;20418;-87
2022/05/16 06:23:26;;;;;;;12.63;6.83;;;19.40;81.30;;;;;;6186868;23;20400;-88
2022/05/16 06:25:55;;;;;;;12.20;6.67;;;19.40;81.60;;;;;;6187242;23;20454;-88
2022/05/16 06:28:24;;;;;;;9.33;6.60;;;19.60;81.50;;;;;;6186311;23;20461;-88
2022/05/16 06:30:52;;;;;;;11.47;6.00;;;19.80;80.90;;;;;;6185832;23;20396;-88
2022/05/16 06:33:20;;;;;;;10.37;5.50;;;20.10;79.80;;;;;;6186126;23;20416;-88
2022/05/16 06:35:49;;;;;;;8.70;5.80;;;20.20;79.30;;;;;;6202202;23;20388;-88
2022/05/16 06:38:18;;;;;;;14.80;5.63;;;20.30;77.80;;;;;;6207276;23;20426;-88
2022/05/16 06:40:47;;;;;;;8.77;6.43;;;20.40;77.50;;;;;;6210577;23;20443;-88
2022/05/16 06:43:17;;;;;;;8.10;6.70;;;20.40;77.90;;;;;;6198514;23;20420;-88
2022/05/16 06:45:45;;;;;;;12.33;7.23;;;20.50;77.40;;;;;;6187511;23;20884;-88
2022/05/16 06:48:12;;;;;;;11.43;6.47;;;20.60;76.50;;;;;;6186179;23;20753;-88
2022/05/16 06:50:39;;;;;;;14.53;6.70;;;21.50;75.30;;;;;;6186190;23;20413;-89
2022/05/16 06:53:07;;;;;;;23.63;6.43;;;22.70;72.30;;;;;;6185916;23;20490;-88
2022/05/16 06:55:34;;;;;;;10.50;6.70;;;23.60;68.50;;;;;;6185907;23;20429;-89
2022/05/16 06:58:00;;;;;;;6.77;4.87;;;24.50;65.80;;;;;;6185589;23;20414;-88
2022/05/16 07:00:29;;;;;;;6.73;4.93;;;24.70;64.00;;;;;;6184275;23;20414;-89
2022/05/16 07:02:56;;;;;;;8.77;5.73;;;24.80;62.90;;;;;;6185424;23;20400;-88
2022/05/16 07:05:23;;;;;;;6.40;5.63;;;24.60;63.30;;;;;;6184977;23;20425;-89
2022/05/16 07:07:51;;;;;;;6.83;5.77;;;24.50;64.10;;;;;;6185864;23;20403;-88
2022/05/16 07:10:18;;;;;;;11.43;5.70;;;24.80;63.30;;;;;;6186578;23;20728;-89
2022/05/16 07:12:45;;;;;;;9.87;5.97;;;25.30;61.70;;;;;;6185981;23;20468;-88
2022/05/16 07:15:13;;;;;;;7.03;4.77;;;25.90;60.50;;;;;;6185460;23;20453;-89
2022/05/16 07:17:43;;;;;;;5.23;4.73;;;25.80;59.70;;;;;;6186153;23;20415;-89
2022/05/16 07:20:10;;;;;;;8.07;4.90;;;26.70;59.20;;;;;;6200442;23;20391;-88
2022/05/16 07:22:41;;;;;;;5.83;4.30;;;27.00;58.70;;;;;;6208746;23;20409;-88
2022/05/16 07:25:09;;;;;;;9.07;4.97;;;27.40;57.90;;;;;;6202728;23;20430;-88
2022/05/16 07:30:22;;;;;;;8.80;4.17;;;27.90;56.60;;;;;;6192882;23;20377;-88
2022/05/16 07:32:51;;;;;;;9.30;4.73;;;28.50;56.20;;;;;;6187292;23;20445;-89
2022/05/16 07:35:22;;;;;;;7.47;4.50;;;28.50;55.40;;;;;;6187171;23;20440;-88
2022/05/16 07:37:48;;;;;;;9.20;4.60;;;27.90;56.40;;;;;;6191988;23;20445;-89
2022/05/16 07:40:16;;;;;;;5.90;4.50;;;27.20;57.70;;;;;;6190055;23;20415;-89
2022/05/16 07:42:43;;;;;;;11.93;5.20;;;26.60;58.70;;;;;;6186863;23;21191;-89
2022/05/16 07:45:11;;;;;;;5.80;4.17;;;26.10;61.20;;;;;;6186796;23;20423;-88
2022/05/16 07:47:38;;;;;;;7.97;5.10;;;25.90;62.40;;;;;;6187370;23;20414;-89
2022/05/16 07:50:07;;;;;;;10.60;4.90;;;25.80;62.70;;;;;;6185571;23;20420;-88
2022/05/16 07:52:34;;;;;;;12.10;6.00;;;25.50;63.90;;;;;;6187036;23;20438;-88
2022/05/16 07:55:01;;;;;;;13.13;5.87;;;25.30;65.30;;;;;;6188444;23;20430;-88
2022/05/16 07:57:28;;;;;;;9.03;5.37;;;25.20;66.90;;;;;;6187178;23;20410;-88
2022/05/16 07:59:55;;;;;;;15.10;7.17;;;25.10;67.40;;;;;;6186651;23;20406;-88
2022/05/16 08:02:22;;;;;;;9.33;5.70;;;25.00;68.20;;;;;;6185783;23;20414;-90
2022/05/16 08:04:48;;;;;;;8.37;5.40;;;24.90;68.60;;;;;;6186412;23;20430;-85
2022/05/16 08:07:17;;;;;;;7.90;5.70;;;25.00;69.30;;;;;;6185519;23;20413;-85
2022/05/16 08:12:30;;;;;;;5.90;4.90;;;24.80;71.60;;;;;;6185326;23;20986;-84
2022/05/16 08:14:57;;;;;;;6.43;5.20;;;24.60;72.90;;;;;;6195826;23;20422;-85
2022/05/16 08:17:24;;;;;;;7.03;5.47;;;24.30;75.70;;;;;;6211747;23;20390;-85
2022/05/16 08:19:51;;;;;;;7.10;5.30;;;24.00;78.50;;;;;;6207969;23;20404;-84
2022/05/16 08:22:19;;;;;;;8.33;5.43;;;23.70;77.40;;;;;;6206217;23;20412;-85
2022/05/16 08:24:46;;;;;;;7.50;4.57;;;23.60;79.00;;;;;;6190503;23;20433;-84
2022/05/16 08:27:14;;;;;;;6.97;4.70;;;23.30;80.20;;;;;;6200855;23;20419;-84
2022/05/16 08:29:42;;;;;;;7.07;5.37;;;23.30;81.60;;;;;;6197377;23;20424;-84
2022/05/16 08:32:13;;;;;;;8.73;5.20;;;23.20;81.00;;;;;;6201883;23;20505;-84
2022/05/16 08:34:41;;;;;;;6.83;4.57;;;23.20;80.70;;;;;;6212670;23;20507;-84
2022/05/16 08:39:55;;;;;;;8.80;5.40;;;23.60;80.20;;;;;;6190813;23;20713;-84
2022/05/16 08:42:27;;;;;;;8.70;5.80;;;24.00;79.90;;;;;;6187501;23;20393;-84
2022/05/16 08:44:59;;;;;;;8.23;5.40;;;24.30;78.80;;;;;;6186578;23;20436;-84
2022/05/16 08:47:41;;;;;;;7.00;5.60;;;25.20;77.70;;;;;;6187114;23;20396;-83
2022/05/16 08:50:13;;;;;;;6.03;5.23;;;25.80;73.80;;;;;;6201169;23;20417;-84
2022/05/16 08:52:45;;;;;;;7.60;6.50;;;25.60;74.00;;;;;;6199063;23;20437;-84
2022/05/16 08:55:25;;;;;;;8.80;6.50;;;26.40;73.00;;;;;;6187394;23;20430;-84
2022/05/16 08:57:57;;;;;;;7.60;6.57;;;27.10;69.10;;;;;;6186952;23;20394;-84
2022/05/16 09:00:29;;;;;;;7.80;6.27;;;27.90;67.20;;;;;;6199861;23;20401;-83
2022/05/16 09:02:58;;;;;;;8.23;6.80;;;29.60;64.00;;;;;;6207478;23;20397;-84
2022/05/16 09:05:29;;;;;;;7.13;6.27;;;31.50;60.00;;;;;;6200977;23;20425;-84
2022/05/16 09:07:58;;;;;;;8.50;6.53;;;33.40;54.60;;;;;;6187446;23;20386;-84
2022/05/16 09:10:38;;;;;;;11.03;6.53;;;34.10;52.10;;;;;;6186115;23;20404;-84
2022/05/16 09:13:15;;;;;;;6.50;5.60;;;34.90;50.60;;;;;;6185377;23;20428;-85
2022/05/16 09:15:49;;;;;;;6.60;4.80;;;35.60;49.10;;;;;;6185589;23;20397;-85
2022/05/16 09:18:32;;;;;;;6.50;5.90;;;34.10;49.60;;;;;;6186877;23;20386;-84
2022/05/16 09:21:14;;;;;;;7.23;5.80;;;32.10;52.10;;;;;;6186170;23;20390;-83
2022/05/16 09:23:55;;;;;;;6.80;5.53;;;31.00;55.10;;;;;;6186431;23;20418;-84
2022/05/16 09:26:35;;;;;;;6.00;5.40;;;31.50;52.00;;;;;;6185978;23;20473;-84
2022/05/16 09:29:14;;;;;;;9.53;5.33;;;31.50;51.40;;;;;;6186192;23;20456;-83
2022/05/16 09:31:44;;;;;;;9.30;5.27;;;31.70;51.00;;;;;;6185707;23;20732;-84
2022/05/16 09:34:12;;;;;;;8.17;5.00;;;32.00;49.80;;;;;;6185711;23;20438;-84
2022/05/16 09:36:41;;;;;;;7.50;5.00;;;31.70;50.30;;;;;;6185445;23;20414;-84
2022/05/16 09:39:10;;;;;;;5.57;4.47;;;30.60;50.40;;;;;;6185312;23;20508;-84
2022/05/16 09:41:43;;;;;;;6.70;5.70;;;30.00;52.20;;;;;;6187228;23;20406;-85
2022/05/16 09:44:15;;;;;;;7.13;6.20;;;29.40;52.80;;;;;;6187703;23;20438;-84
2022/05/16 09:46:44;;;;;;;9.27;6.83;;;29.30;54.20;;;;;;6187145;23;20397;-84
2022/05/16 09:49:14;;;;;;;6.80;6.00;;;29.60;53.70;;;;;;6185677;23;20749;-84
2022/05/16 09:51:48;;;;;;;6.80;5.70;;;29.40;53.40;;;;;;6185787;23;20395;-84
2022/05/16 09:54:22;;;;;;;9.20;5.93;;;29.20;53.30;;;;;;6185737;23;20910;-84
2022/05/16 09:56:58;;;;;;;7.93;6.47;;;29.20;54.30;;;;;;6203079;23;20425;-84
2022/05/16 09:59:42;;;;;;;7.30;6.60;;;28.60;54.00;;;;;;6200971;23;20858;-84
2022/05/16 10:02:20;;;;;;;6.73;5.90;;;28.60;54.30;;;;;;6185837;23;20416;-85
2022/05/16 10:04:49;;;;;;;9.40;5.20;;;28.90;54.50;;;;;;6184844;23;20413;-85
2022/05/16 10:07:16;;;;;;;5.60;4.87;;;28.90;54.10;;;;;;6185815;23;20410;-85
2022/05/16 10:09:47;;;;;;;5.47;4.97;;;29.30;53.70;;;;;;6185892;23;20813;-85
2022/05/16 10:12:19;;;;;;;8.87;6.03;;;29.90;53.10;;;;;;6187079;23;20421;-85
2022/05/16 10:14:46;;;;;;;6.73;6.17;;;30.50;52.30;;;;;;6208310;23;20428;-85
2022/05/16 10:17:18;;;;;;;7.80;7.20;;;30.70;52.00;;;;;;6210181;23;20469;-85
2022/05/16 10:19:45;;;;;;;6.73;5.83;;;30.90;52.10;;;;;;6211951;23;20386;-85
2022/05/16 10:22:16;;;;;;;6.70;5.60;;;30.90;51.30;;;;;;6205309;23;20406;-84
2022/05/16 10:24:47;;;;;;;6.90;6.20;;;30.80;51.20;;;;;;6201446;23;20456;-85
2022/05/16 10:27:19;;;;;;;6.97;5.40;;;30.70;52.40;;;;;;6197289;23;20394;-85
2022/05/16 10:29:49;;;;;;;7.10;5.67;;;30.50;51.70;;;;;;6190312;23;20823;-85
2022/05/16 10:35:13;;;;;;;11.10;6.43;;;31.30;50.80;;;;;;6186090;23;20429;-84
2022/05/16 10:37:44;;;;;;;8.70;6.23;;;30.90;51.40;;;;;;6188001;23;20441;-84
2022/05/16 10:40:15;;;;;;;7.50;5.70;;;30.40;51.60;;;;;;6203840;23;20374;-84
2022/05/16 10:42:49;;;;;;;10.70;8.17;;;29.70;52.60;;;;;;6202726;23;20398;-84
2022/05/16 10:45:19;;;;;;;8.00;6.60;;;29.10;54.30;;;;;;6186537;23;20833;-84
2022/05/16 10:47:52;;;;;;;6.27;5.70;;;28.60;55.40;;;;;;6187281;23;20453;-84
2022/05/16 10:50:24;;;;;;;9.93;6.40;;;28.40;56.30;;;;;;6186104;23;20888;-85
2022/05/16 10:52:56;;;;;;;10.73;6.27;;;27.90;56.80;;;;;;6186718;23;20433;-85
2022/05/16 10:55:24;;;;;;;6.40;5.70;;;27.70;57.50;;;;;;6186460;23;20481;-85
2022/05/16 10:58:13;;;;;;;6.10;5.50;;;27.70;58.10;;;;;;6185720;23;20406;-84
2022/05/16 11:00:47;;;;;;;7.80;5.27;;;27.50;57.80;;;;;;6203582;23;20374;-84
2022/05/16 11:03:47;;;;;;;6.50;5.60;;;27.40;57.20;;;;;;6201241;23;20880;-85
2022/05/16 11:06:37;;;;;;;7.07;5.13;;;27.40;57.40;;;;;;6186598;23;20389;-85
2022/05/16 11:09:10;;;;;;;7.47;4.40;;;27.30;57.40;;;;;;6193709;23;20386;-85
2022/05/16 11:11:43;;;;;;;6.20;4.10;;;27.20;57.60;;;;;;6210809;23;20392;-85
2022/05/16 11:14:16;;;;;;;10.90;4.93;;;27.10;57.80;;;;;;6206907;23;20461;-86
2022/05/16 11:16:44;;;;;;;7.57;4.67;;;27.00;58.10;;;;;;6201042;23;20400;-85
2022/05/16 11:19:25;;;;;;;8.00;3.90;;;26.90;58.60;;;;;;6211118;23;20431;-86
2022/05/16 11:21:58;;;;;;;6.10;4.47;;;26.80;58.90;;;;;;6203705;23;20370;-86
2022/05/16 11:24:32;;;;;;;6.50;4.17;;;26.70;59.30;;;;;;6200040;23;20418;-86
2022/05/16 11:27:11;;;;;;;8.50;5.50;;;26.30;60.10;;;;;;6200698;23;20403;-86
2022/05/16 11:29:50;;;;;;;6.73;5.20;;;25.90;61.50;;;;;;6207416;23;20451;-86
2022/05/16 11:32:30;;;;;;;7.90;4.33;;;25.70;62.20;;;;;;6202194;23;20640;-86
2022/05/16 11:35:07;;;;;;;5.80;4.30;;;25.50;62.90;;;;;;6195950;23;20771;-86
2022/05/16 11:37:52;;;;;;;8.80;4.13;;;25.40;63.50;;;;;;6205472;23;20402;-85
2022/05/16 11:40:25;;;;;;;6.37;3.40;;;25.30;64.00;;;;;;6210573;23;20417;-86
2022/05/16 11:43:06;;;;;;;5.90;3.93;;;25.10;62.90;;;;;;6207223;23;20392;-87
2022/05/16 11:46:00;;;;;;;4.43;4.03;;;24.90;63.40;;;;;;6194378;23;20429;-86
2022/05/16 11:48:36;;;;;;;5.10;4.00;;;24.80;63.00;;;;;;6190748;23;20406;-87
2022/05/16 11:51:13;;;;;;;5.87;4.23;;;24.70;63.00;;;;;;6197057;23;20448;-87
2022/05/16 11:53:47;;;;;;;6.00;3.73;;;24.60;63.50;;;;;;6192507;23;20481;-86
2022/05/16 12:02:16;;;;;;;6.57;3.03;;;24.30;63.00;;;;;;6185806;23;20365;-85
2022/05/16 12:04:45;;;;;;;6.40;4.33;;;24.20;63.30;;;;;;6185686;23;20497;-84
2022/05/16 12:07:19;;;;;;;6.10;3.50;;;24.20;63.40;;;;;;6186220;23;20405;-85
2022/05/16 12:09:59;;;;;;;8.80;6.20;;;24.00;63.00;;;;;;6188485;23;20381;-86
2022/05/16 12:12:37;;;;;;;15.80;8.53;;;23.90;62.20;;;;;;6190873;23;20865;-88
2022/05/16 12:15:31;;;;;;;8.00;6.27;;;23.90;62.20;;;;;;6191126;23;20928;-89
2022/05/16 12:18:01;;;;;;;5.13;3.47;;;23.80;62.80;;;;;;6191264;23;20495;-85
2022/05/16 12:21:05;;;;;;;5.30;2.67;;;23.70;62.60;;;;;;6188572;23;20669;-85
2022/05/16 12:23:59;;;;;;;4.20;2.43;;;23.70;63.60;;;;;;6187178;23;20405;-85
2022/05/16 12:27:00;;;;;;;6.70;3.43;;;23.50;66.30;;;;;;6188597;23;20783;-86
2022/05/16 12:29:37;;;;;;;9.83;3.90;;;23.20;72.60;;;;;;6194528;22;20457;-80
2022/05/16 12:32:05;;;;;;;5.23;2.63;;;22.70;77.90;;;;;;6203253;23;20405;-82
2022/05/16 12:34:45;;;;;;;3.87;2.60;;;22.20;82.40;;;;;;6205623;23;20431;-82
2022/05/16 12:37:16;;;;;;;7.00;3.03;;;21.80;85.90;;;;;;6195804;23;20387;-82
2022/05/16 12:39:51;;;;;;;6.03;2.60;;;21.50;89.50;;;;;;6199985;23;20411;-81
2022/05/16 12:42:50;;;;;;;5.17;3.30;;;21.10;91.80;;;;;;6204190;23;20779;-82
2022/05/16 12:45:37;;;;;;;4.20;2.23;;;20.70;94.00;;;;;;6150267;23;20401;-83
2022/05/16 12:48:29;;;;;;;7.30;3.40;;;20.50;94.90;;;;;;6173982;23;20485;-82
2022/05/16 12:51:17;;;;;;;4.73;2.90;;;20.30;96.90;;;;;;6170096;23;20395;-81
2022/05/16 12:54:19;;;;;;;8.23;4.07;;;20.20;98.90;;;;;;6168968;23;20442;-82
2022/05/16 12:56:50;;;;;;;4.73;3.17;;;19.90;99.90;;;;;;6118570;23;20419;-81
2022/05/16 12:59:42;;;;;;;10.40;3.67;;;19.70;99.90;;;;;;6183179;23;20407;-81
2022/05/16 13:02:16;;;;;;;5.77;3.10;;;19.70;99.90;;;;;;6169821;23;20428;-81
2022/05/16 13:04:59;;;;;;;5.70;3.17;;;19.70;99.90;;;;;;6178488;23;20393;-80
2022/05/16 13:07:38;;;;;;;6.23;3.00;;;19.90;99.90;;;;;;6174587;23;20436;-81
2022/05/16 13:10:12;;;;;;;6.53;3.23;;;19.80;99.90;;;;;;6172440;23;20391;-83
2022/05/16 13:12:54;;;;;;;6.00;2.90;;;20.20;99.90;;;;;;6169447;23;20407;-82
2022/05/16 13:15:26;;;;;;;4.20;2.33;;;20.70;99.90;;;;;;6169611;23;20391;-83
2022/05/16 13:17:57;;;;;;;4.50;2.90;;;21.70;99.90;;;;;;6170150;23;20776;-83
2022/05/16 13:20:31;;;;;;;4.97;2.00;;;23.10;99.90;;;;;;6166407;23;20392;-83
2022/05/16 13:22:59;;;;;;;5.73;2.83;;;24.30;98.30;;;;;;6179399;23;20383;-82
2022/05/16 13:25:27;;;;;;;8.50;3.80;;;24.80;95.10;;;;;;6168217;23;20484;-83
2022/05/16 13:30:41;;;;;;;5.30;3.40;;;26.20;87.10;;;;;;6170026;23;20381;-80
2022/05/16 13:33:23;;;;;;;4.97;3.50;;;25.60;88.60;;;;;;6171481;23;20394;-80
2022/05/16 13:35:49;;;;;;;5.40;3.03;;;25.60;90.80;;;;;;6179696;23;20395;-79
2022/05/16 13:38:18;;;;;;;6.27;4.30;;;25.80;90.90;;;;;;6177413;23;20516;-79